createdAt,value
2023-05-03T00:00:27.262Z,100523.19
2023-05-03T00:03:07.849Z,100521.53
2023-05-03T00:05:45.092Z,100522.53
2023-05-03T00:08:49.476Z,100522.53
2023-05-03T00:11:24.010Z,100528.66
2023-05-03T00:14:11.242Z,100529.69
2023-05-03T00:17:03.733Z,100534.19
2023-05-03T00:19:44.228Z,100535.19
2023-05-03T00:22:33.388Z,100529.34
2023-05-03T00:25:29.093Z,100525.19
2023-05-03T00:28:19.480Z,100524.41
2023-05-03T00:30:59.408Z,100521.91
2023-05-03T00:33:49.956Z,100519.50
2023-05-03T00:36:31.336Z,100515.28
2023-05-03T00:39:14.506Z,100519.66
2023-05-03T00:42:10.365Z,100513.03
2023-05-03T00:44:52.326Z,100517.22
2023-05-03T00:47:52.262Z,100514.88
2023-05-03T00:50:36.861Z,100515.81
2023-05-03T00:53:20.139Z,100506.56
2023-05-03T00:55:53.879Z,100505.78
2023-05-03T00:58:40.838Z,100512.75
2023-05-03T01:01:30.644Z,100507.59
2023-05-03T01:04:03.212Z,100506.03
2023-05-03T01:07:27.499Z,100501.00
2023-05-03T01:10:30.337Z,100493.47
2023-05-03T01:13:30.320Z,100483.28
2023-05-03T01:16:18.525Z,100486.66
2023-05-03T01:19:03.089Z,100478.19
2023-05-03T01:21:35.893Z,100485.22
2023-05-03T01:24:32.208Z,100483.63
2023-05-03T01:27:14.055Z,100483.84
2023-05-03T01:30:03.646Z,100480.56
2023-05-03T01:33:04.880Z,100484.03
2023-05-03T01:36:01.575Z,100480.66
2023-05-03T01:38:52.455Z,100485.09
2023-05-03T01:41:52.945Z,100481.78
2023-05-03T01:44:35.694Z,100479.28
2023-05-03T01:47:26.539Z,100473.28
2023-05-03T01:49:56.842Z,100474.84
2023-05-03T01:52:29.285Z,100474.84
2023-05-03T01:55:24.906Z,100480.91
2023-05-03T01:58:10.574Z,100479.31
2023-05-03T02:01:07.387Z,100479.34
2023-05-03T02:03:41.485Z,100481.09
2023-05-03T02:06:29.273Z,100484.63
2023-05-03T02:09:18.995Z,100482.16
2023-05-03T02:12:08.434Z,100489.03
2023-05-03T02:14:54.446Z,100471.28
2023-05-03T02:17:30.182Z,100480.53
2023-05-03T02:20:01.339Z,100481.50
2023-05-03T02:22:55.557Z,100483.38
2023-05-03T02:25:27.593Z,100487.03
2023-05-03T02:27:58.286Z,100488.91
2023-05-03T02:31:02.828Z,100490.03
2023-05-03T02:33:45.188Z,100490.34
2023-05-03T02:36:19.373Z,100500.03
2023-05-03T02:39:08.608Z,100495.09
2023-05-03T02:41:41.856Z,100495.22
2023-05-03T02:44:22.946Z,100489.28
2023-05-03T02:47:10.767Z,100494.69
2023-05-03T02:49:58.218Z,100496.59
2023-05-03T02:52:36.230Z,100497.50
2023-05-03T02:55:19.278Z,100495.81
2023-05-03T02:58:15.368Z,100498.41
2023-05-03T03:00:51.304Z,100502.84
2023-05-03T03:03:22.516Z,100496.84
2023-05-03T03:06:15.325Z,100494.31
2023-05-03T03:09:10.372Z,100497.06
2023-05-03T03:11:47.340Z,100504.09
2023-05-03T03:14:42.864Z,100507.63
2023-05-03T03:17:19.842Z,100505.25
2023-05-03T03:20:12.344Z,100506.91
2023-05-03T03:22:49.386Z,100504.34
2023-05-03T03:25:53.101Z,100506.97
2023-05-03T03:28:40.188Z,100503.50
2023-05-03T03:31:15.868Z,100502.69
2023-05-03T03:33:56.934Z,100501.09
2023-05-03T03:36:33.543Z,100507.19
2023-05-03T03:39:13.067Z,100503.06
2023-05-03T03:42:05.006Z,100500.69
2023-05-03T03:44:36.271Z,100501.81
2023-05-03T03:47:08.785Z,100505.50
2023-05-03T03:49:48.233Z,100508.25
2023-05-03T03:52:25.587Z,100504.88
2023-05-03T03:55:15.271Z,100500.59
2023-05-03T03:58:20.413Z,100504.19
2023-05-03T04:00:52.652Z,100495.06
2023-05-03T04:03:31.702Z,100508.16
2023-05-03T04:06:10.345Z,100503.25
2023-05-03T04:08:52.892Z,100507.69
2023-05-03T04:12:11.891Z,100505.38
2023-05-03T04:14:47.344Z,100511.44
2023-05-03T04:17:39.267Z,100506.31
2023-05-03T04:20:23.617Z,100501.97
2023-05-03T04:23:08.313Z,100505.44
2023-05-03T04:25:48.982Z,100508.94
2023-05-03T04:28:37.046Z,100504.75
2023-05-03T04:31:22.812Z,100508.16
2023-05-03T04:34:15.283Z,100506.31
2023-05-03T04:36:50.287Z,100512.16
2023-05-03T04:39:35.246Z,100511.19
2023-05-03T04:42:20.888Z,100516.22
2023-05-03T04:45:03.214Z,100514.50
2023-05-03T04:47:44.605Z,100518.72
2023-05-03T04:50:36.774Z,100517.97
2023-05-03T04:53:09.677Z,100525.72
2023-05-03T04:55:48.209Z,100526.63
2023-05-03T04:58:34.671Z,100529.16
2023-05-03T05:01:12.936Z,100532.38
2023-05-03T05:04:11.139Z,100521.03
2023-05-03T05:06:58.154Z,100519.03
2023-05-03T05:09:41.401Z,100515.31
2023-05-03T05:12:37.721Z,100524.44
2023-05-03T05:15:31.443Z,100514.00
2023-05-03T05:18:38.626Z,100521.34
2023-05-03T05:21:15.859Z,100525.38
2023-05-03T05:24:11.650Z,100525.97
2023-05-03T05:26:44.850Z,100524.75
2023-05-03T05:29:21.679Z,100521.84
2023-05-03T05:32:08.307Z,100527.41
2023-05-03T05:34:52.134Z,100519.38
2023-05-03T05:37:32.411Z,100522.47
2023-05-03T05:40:11.504Z,100517.81
2023-05-03T05:43:05.824Z,100519.16
2023-05-03T05:46:08.691Z,100524.00
2023-05-03T05:48:53.165Z,100523.69
2023-05-03T05:51:39.595Z,100534.50
2023-05-03T05:54:23.984Z,100541.03
2023-05-03T05:57:21.394Z,100526.91
2023-05-03T06:00:08.115Z,100518.00
2023-05-03T06:02:55.130Z,100524.56
2023-05-03T06:05:28.377Z,100519.16
2023-05-03T06:08:25.530Z,100512.06
2023-05-03T06:11:11.948Z,100510.91
2023-05-03T06:13:44.410Z,100508.03
2023-05-03T06:16:45.058Z,100512.03
2023-05-03T06:19:45.094Z,100509.06
2023-05-03T06:22:20.568Z,100495.88
2023-05-03T06:25:31.345Z,100491.34
2023-05-03T06:28:31.983Z,100492.94
2023-05-03T06:31:22.912Z,100501.28
2023-05-03T06:34:04.030Z,100496.81
2023-05-03T06:36:46.376Z,100500.88
2023-05-03T06:39:31.708Z,100493.66
2023-05-03T06:42:28.365Z,100495.91
2023-05-03T06:45:24.510Z,100494.78
2023-05-03T06:48:18.347Z,100487.66
2023-05-03T06:50:52.371Z,100486.56
2023-05-03T06:53:35.547Z,100489.81
2023-05-03T06:56:21.083Z,100489.53
2023-05-03T06:58:58.510Z,100493.59
2023-05-03T07:01:45.685Z,100495.97
2023-05-03T07:04:26.517Z,100504.16
2023-05-03T07:07:12.769Z,100504.59
2023-05-03T07:09:56.896Z,100503.19
2023-05-03T07:12:53.369Z,100496.66
2023-05-03T07:15:35.279Z,100494.47
2023-05-03T07:18:11.702Z,100492.44
2023-05-03T07:21:11.159Z,100494.72
2023-05-03T07:23:53.910Z,100492.75
2023-05-03T07:26:43.772Z,100487.25
2023-05-03T07:29:24.895Z,100477.22
2023-05-03T07:32:09.293Z,100474.94
2023-05-03T07:34:55.959Z,100466.03
2023-05-03T07:37:48.795Z,100468.09
2023-05-03T07:40:35.439Z,100468.50
2023-05-03T07:43:34.579Z,100472.22
2023-05-03T07:46:13.671Z,100464.88
2023-05-03T07:48:49.496Z,100465.34
2023-05-03T07:51:41.452Z,100460.72
2023-05-03T07:54:30.759Z,100464.56
2023-05-03T07:57:24.474Z,100464.06
2023-05-03T08:00:20.998Z,100465.31
2023-05-03T08:03:04.006Z,100460.69
2023-05-03T08:06:10.065Z,100473.91
2023-05-03T08:08:58.283Z,100466.47
2023-05-03T08:11:51.106Z,100469.44
2023-05-03T08:14:34.251Z,100467.38
2023-05-03T08:17:23.695Z,100472.06
2023-05-03T08:20:02.653Z,100468.84
2023-05-03T08:23:03.104Z,100467.38
2023-05-03T08:26:12.990Z,100464.97
2023-05-03T08:28:44.630Z,100465.19
2023-05-03T08:31:28.463Z,100461.22
2023-05-03T08:34:14.219Z,100465.09
2023-05-03T08:36:45.272Z,100462.69
2023-05-03T08:40:11.862Z,100454.25
2023-05-03T08:43:02.722Z,100452.94
2023-05-03T08:45:36.434Z,100462.97
2023-05-03T08:48:08.967Z,100457.63
2023-05-03T08:50:58.316Z,100459.97
2023-05-03T08:53:50.946Z,100460.47
2023-05-03T08:56:52.547Z,100459.03
2023-05-03T08:59:33.704Z,100463.00
2023-05-03T09:02:17.221Z,100456.94
2023-05-03T09:04:57.215Z,100457.63
2023-05-03T09:08:05.368Z,100458.03
2023-05-03T09:10:50.434Z,100454.66
2023-05-03T09:13:42.599Z,100459.09
2023-05-03T09:16:41.006Z,100463.63
2023-05-03T09:19:14.937Z,100462.91
2023-05-03T09:21:51.531Z,100461.34
2023-05-03T09:24:29.375Z,100448.16
2023-05-03T09:27:04.795Z,100457.34
2023-05-03T09:29:40.494Z,100454.31
2023-05-03T09:32:13.120Z,100455.34
2023-05-03T09:34:48.754Z,100454.63
2023-05-03T09:37:41.242Z,100449.91
2023-05-03T09:40:18.609Z,100446.06
2023-05-03T09:43:16.964Z,100440.94
2023-05-03T09:46:33.720Z,100443.44
2023-05-03T09:49:29.773Z,100432.34
2023-05-03T09:52:25.849Z,100439.28
2023-05-03T09:55:03.634Z,100431.63
2023-05-03T09:57:48.604Z,100423.53
2023-05-03T10:00:30.974Z,100426.69
2023-05-03T10:03:26.570Z,100428.91
2023-05-03T10:06:08.604Z,100424.78
2023-05-03T10:08:54.745Z,100422.13
2023-05-03T10:11:30.807Z,100419.97
2023-05-03T10:14:15.273Z,100417.25
2023-05-03T10:16:58.888Z,100412.88
2023-05-03T10:19:48.346Z,100415.91
2023-05-03T10:22:38.707Z,100410.97
2023-05-03T10:25:26.695Z,100405.78
2023-05-03T10:28:18.235Z,100395.38
2023-05-03T10:31:06.811Z,100401.75
2023-05-03T10:33:59.232Z,100394.44
2023-05-03T10:36:53.753Z,100391.63
2023-05-03T10:39:38.732Z,100387.97
2023-05-03T10:42:13.853Z,100386.50
2023-05-03T10:45:04.776Z,100379.56
2023-05-03T10:47:47.237Z,100388.56
2023-05-03T10:50:33.718Z,100375.53
2023-05-03T10:53:52.766Z,100377.50
2023-05-03T10:56:26.604Z,100376.88
2023-05-03T10:59:09.843Z,100380.75
2023-05-03T11:01:40.693Z,100371.66
2023-05-03T11:04:26.634Z,100375.69
2023-05-03T11:07:04.197Z,100366.88
2023-05-03T11:10:06.259Z,100369.81
2023-05-03T11:12:48.149Z,100366.22
2023-05-03T11:15:39.188Z,100369.84
2023-05-03T11:18:19.965Z,100363.13
2023-05-03T11:21:04.601Z,100373.56
2023-05-03T11:23:41.974Z,100360.47
2023-05-03T11:26:26.599Z,100360.88
2023-05-03T11:28:59.199Z,100363.25
2023-05-03T11:31:45.716Z,100354.81
2023-05-03T11:34:27.793Z,100353.53
2023-05-03T11:37:05.203Z,100346.38
2023-05-03T11:39:52.998Z,100353.22
2023-05-03T11:42:54.884Z,100344.44
2023-05-03T11:45:28.735Z,100347.16
2023-05-03T11:48:12.134Z,100333.72
2023-05-03T11:50:55.566Z,100335.56
2023-05-03T11:53:39.093Z,100333.34
2023-05-03T11:56:26.125Z,100335.53
2023-05-03T11:59:05.321Z,100324.72
2023-05-03T12:02:01.333Z,100325.81
2023-05-03T12:04:52.410Z,100324.66
2023-05-03T12:07:27.222Z,100321.56
2023-05-03T12:10:13.615Z,100319.44
2023-05-03T12:13:04.514Z,100325.97
2023-05-03T12:16:26.498Z,100324.78
2023-05-03T12:19:30.921Z,100322.97
2023-05-03T12:25:15.419Z,100307.00
2023-05-03T12:30:45.853Z,100300.94
2023-05-03T12:33:28.733Z,100298.06
2023-05-03T12:36:04.644Z,100282.56
2023-05-03T12:38:56.381Z,100288.31
2023-05-03T12:44:15.565Z,100271.75
2023-05-03T12:47:00.894Z,100267.16
2023-05-03T12:49:46.429Z,100278.97
2023-05-03T12:52:38.015Z,100264.28
2023-05-03T12:55:35.319Z,100267.22
2023-05-03T13:04:08.353Z,100263.66
2023-05-03T13:07:15.380Z,100251.84
2023-05-03T13:12:51.736Z,100242.94
2023-05-03T13:15:25.539Z,100234.44
2023-05-03T13:18:16.825Z,100239.06
2023-05-03T13:21:11.760Z,100226.59
2023-05-03T13:24:20.658Z,100223.81
2023-05-03T13:27:15.453Z,100217.50
2023-05-03T13:29:57.687Z,100199.81
2023-05-03T13:32:42.146Z,100200.06
2023-05-03T13:35:22.941Z,100192.91
2023-05-03T13:38:05.536Z,100195.09
2023-05-03T13:40:43.037Z,100191.88
2023-05-03T13:43:42.728Z,100186.56
2023-05-03T13:46:37.641Z,100182.56
2023-05-03T13:49:09.653Z,100183.41
2023-05-03T13:51:43.787Z,100180.09
2023-05-03T13:54:26.509Z,100179.19
2023-05-03T13:57:42.864Z,100178.25
2023-05-03T14:00:32.060Z,100164.72
2023-05-03T14:03:14.906Z,100165.59
2023-05-03T14:05:47.330Z,100169.94
2023-05-03T14:08:18.026Z,100173.97
2023-05-03T14:10:48.921Z,100174.31
2023-05-03T14:13:34.999Z,100161.56
2023-05-03T14:16:35.914Z,100160.50
2023-05-03T14:19:25.816Z,100158.59
2023-05-03T14:22:08.856Z,100153.38
2023-05-03T14:24:43.056Z,100150.06
2023-05-03T14:27:21.149Z,100156.91
2023-05-03T14:29:56.512Z,100156.75
2023-05-03T14:32:31.394Z,100132.13
2023-05-03T14:35:18.715Z,100144.06
2023-05-03T14:37:54.441Z,100148.94
2023-05-03T14:40:25.309Z,100139.63
2023-05-03T14:42:56.334Z,100138.00
2023-05-03T14:45:31.535Z,100135.78
2023-05-03T14:48:12.183Z,100127.88
2023-05-03T14:50:56.800Z,100126.91
2023-05-03T14:53:36.535Z,100140.84
2023-05-03T14:56:16.116Z,100134.22
2023-05-03T14:58:50.877Z,100131.03
2023-05-03T15:01:47.649Z,100136.97
2023-05-03T15:04:25.270Z,100127.50
2023-05-03T15:07:26.560Z,100130.84
2023-05-03T15:10:01.621Z,100130.19
2023-05-03T15:12:32.559Z,100130.81
2023-05-03T15:15:06.541Z,100126.13
2023-05-03T15:17:57.011Z,100124.25
2023-05-03T15:20:32.495Z,100126.56
2023-05-03T15:23:21.430Z,100117.69
2023-05-03T15:26:09.128Z,100117.84
2023-05-03T15:28:52.595Z,100119.06
2023-05-03T15:31:28.338Z,100124.44
2023-05-03T15:34:12.800Z,100123.34
2023-05-03T15:37:04.532Z,100116.00
2023-05-03T15:39:38.174Z,100119.00
2023-05-03T15:42:09.875Z,100117.78
2023-05-03T15:44:47.297Z,100120.28
2023-05-03T15:47:25.573Z,100115.84
2023-05-03T15:50:02.498Z,100119.38
2023-05-03T15:52:50.258Z,100114.38
2023-05-03T15:55:30.568Z,100107.56
2023-05-03T15:58:20.052Z,100098.63
2023-05-03T16:00:50.841Z,100104.59
2023-05-03T16:03:30.933Z,100107.72
2023-05-03T16:06:20.934Z,100104.59
2023-05-03T16:08:53.664Z,100103.88
2023-05-03T16:11:39.075Z,100099.28
2023-05-03T16:14:22.639Z,100095.81
2023-05-03T16:17:07.831Z,100100.56
2023-05-03T16:19:52.395Z,100097.22
2023-05-03T16:22:35.159Z,100091.25
2023-05-03T16:25:28.341Z,100095.31
2023-05-03T16:28:00.438Z,100098.94
2023-05-03T16:30:50.574Z,100095.94
2023-05-03T16:33:21.347Z,100089.06
2023-05-03T16:35:52.420Z,100095.34
2023-05-03T16:38:31.122Z,100094.06
2023-05-03T16:41:11.949Z,100085.38
2023-05-03T16:43:53.553Z,100089.69
2023-05-03T16:46:35.160Z,100085.56
2023-05-03T16:49:12.487Z,100092.66
2023-05-03T16:51:53.626Z,100098.19
2023-05-03T16:54:40.611Z,100088.91
2023-05-03T16:57:20.616Z,100081.69
2023-05-03T16:59:53.778Z,100088.13
2023-05-03T17:02:31.912Z,100083.63
2023-05-03T17:05:20.682Z,100090.06
2023-05-03T17:08:03.059Z,100091.22
2023-05-03T17:10:57.533Z,100084.09
2023-05-03T17:13:39.037Z,100090.47
2023-05-03T17:16:26.345Z,100088.63
2023-05-03T17:19:11.438Z,100090.19
2023-05-03T17:21:45.628Z,100088.66
2023-05-03T17:24:22.335Z,100097.75
2023-05-03T17:27:03.670Z,100100.34
2023-05-03T17:29:42.208Z,100096.72
2023-05-03T17:32:16.930Z,100097.22
2023-05-03T17:34:54.743Z,100107.44
2023-05-03T17:37:27.263Z,100107.66
2023-05-03T17:40:04.753Z,100106.50
2023-05-03T17:42:47.769Z,100103.88
2023-05-03T17:45:22.809Z,100114.31
2023-05-03T17:48:07.113Z,100117.06
2023-05-03T17:50:43.711Z,100125.28
2023-05-03T17:53:28.311Z,100128.06
2023-05-03T17:56:07.794Z,100134.38
2023-05-03T17:59:06.583Z,100141.69
2023-05-03T18:01:44.116Z,100143.66
2023-05-03T18:04:22.416Z,100142.28
2023-05-03T18:07:07.121Z,100149.88
2023-05-03T18:09:40.997Z,100149.34
2023-05-03T18:12:11.343Z,100152.22
2023-05-03T18:14:49.322Z,100155.47
2023-05-03T18:17:35.726Z,100150.84
2023-05-03T18:20:07.179Z,100162.03
2023-05-03T18:22:50.129Z,100163.31
2023-05-03T18:25:36.188Z,100165.38
2023-05-03T18:28:23.177Z,100167.63
2023-05-03T18:31:24.345Z,100162.97
2023-05-03T18:34:00.810Z,100173.53
2023-05-03T18:36:36.929Z,100172.41
2023-05-03T18:39:15.762Z,100178.19
2023-05-03T18:42:07.464Z,100177.28
2023-05-03T18:45:08.419Z,100184.03
2023-05-03T18:47:44.270Z,100186.22
2023-05-03T18:50:43.327Z,100186.50
2023-05-03T18:53:32.293Z,100193.75
2023-05-03T18:56:10.392Z,100202.19
2023-05-03T18:58:59.983Z,100200.56
2023-05-03T19:01:48.588Z,100198.91
2023-05-03T19:04:44.639Z,100197.19
2023-05-03T19:07:33.094Z,100203.47
2023-05-03T19:10:39.979Z,100222.44
2023-05-03T19:13:39.626Z,100213.78
2023-05-03T19:16:15.173Z,100205.28
2023-05-03T19:18:56.735Z,100212.72
2023-05-03T19:21:35.332Z,100216.16
2023-05-03T19:24:22.612Z,100218.63
2023-05-03T19:26:57.832Z,100217.88
2023-05-03T19:29:44.840Z,100219.72
2023-05-03T19:32:56.530Z,100220.63
2023-05-03T19:35:27.198Z,100224.69
2023-05-03T19:38:17.959Z,100236.06
2023-05-03T19:41:08.352Z,100232.22
2023-05-03T19:43:45.919Z,100223.94
2023-05-03T19:46:45.320Z,100225.97
2023-05-03T19:49:26.340Z,100213.00
2023-05-03T19:52:17.840Z,100223.88
2023-05-03T19:55:19.376Z,100226.56
2023-05-03T19:57:54.124Z,100217.88
2023-05-03T20:00:37.173Z,100222.63
2023-05-03T20:03:11.681Z,100224.03
2023-05-03T20:05:47.241Z,100222.69
2023-05-03T20:08:28.343Z,100230.41
2023-05-03T20:11:21.752Z,100218.53
2023-05-03T20:13:54.297Z,100222.06
2023-05-03T20:16:58.939Z,100218.50
2023-05-03T20:19:45.522Z,100218.44
2023-05-03T20:22:27.265Z,100227.75
2023-05-03T20:25:18.690Z,100219.84
2023-05-03T20:28:08.455Z,100222.25
2023-05-03T20:31:02.326Z,100221.72
2023-05-03T20:33:35.889Z,100219.00
2023-05-03T20:36:31.027Z,100220.19
2023-05-03T20:39:01.935Z,100216.75
2023-05-03T20:41:59.220Z,100209.69
2023-05-03T20:44:43.079Z,100210.03
2023-05-03T20:47:20.296Z,100212.38
2023-05-03T20:50:11.179Z,100209.44
2023-05-03T20:52:58.800Z,100204.63
2023-05-03T20:55:43.694Z,100201.44
2023-05-03T20:58:31.271Z,100206.38
2023-05-03T21:01:39.922Z,100207.47
2023-05-03T21:04:27.702Z,100206.13
2023-05-03T21:07:01.432Z,100220.38
2023-05-03T21:09:43.661Z,100220.03
2023-05-03T21:12:16.095Z,100213.47
2023-05-03T21:15:01.135Z,100213.94
2023-05-03T21:17:41.282Z,100228.31
2023-05-03T21:20:17.222Z,100217.78
2023-05-03T21:23:12.203Z,100221.47
2023-05-03T21:25:55.196Z,100216.56
2023-05-03T21:28:38.093Z,100217.66
2023-05-03T21:31:09.928Z,100218.63
2023-05-03T21:33:47.104Z,100204.22
2023-05-03T21:36:36.306Z,100201.84
2023-05-03T21:39:31.135Z,100205.38
2023-05-03T21:42:01.390Z,100201.13
2023-05-03T21:44:44.651Z,100198.72
2023-05-03T21:47:17.453Z,100200.47
2023-05-03T21:49:58.439Z,100193.56
2023-05-03T21:52:38.966Z,100190.91
2023-05-03T21:55:33.644Z,100188.66
2023-05-03T21:58:05.682Z,100182.06
2023-05-03T22:01:01.966Z,100179.53
2023-05-03T22:03:36.087Z,100180.53
2023-05-03T22:06:48.885Z,100177.16
2023-05-03T22:09:41.501Z,100168.63
2023-05-03T22:12:24.451Z,100160.59
2023-05-03T22:15:09.435Z,100169.47
2023-05-03T22:17:47.633Z,100167.91
2023-05-03T22:20:32.506Z,100171.75
2023-05-03T22:23:12.754Z,100167.00
2023-05-03T22:25:55.720Z,100167.06
2023-05-03T22:28:57.603Z,100164.44
2023-05-03T22:31:50.382Z,100181.97
2023-05-03T22:34:48.108Z,100169.38
2023-05-03T22:37:41.420Z,100173.81
2023-05-03T22:40:23.403Z,100170.44
2023-05-03T22:43:17.702Z,100167.75
2023-05-03T22:46:14.323Z,100166.38
2023-05-03T22:49:07.696Z,100166.72
2023-05-03T22:51:39.113Z,100163.41
2023-05-03T22:54:09.652Z,100172.75
2023-05-03T22:56:58.825Z,100164.81
2023-05-03T22:59:37.448Z,100164.03
2023-05-03T23:02:21.776Z,100166.50
2023-05-03T23:05:03.631Z,100163.69
2023-05-03T23:07:41.921Z,100159.44
2023-05-03T23:10:14.163Z,100167.22
2023-05-03T23:12:51.345Z,100165.34
2023-05-03T23:15:26.073Z,100149.69
2023-05-03T23:18:24.782Z,100148.59
2023-05-03T23:20:54.764Z,100142.41
2023-05-03T23:23:32.569Z,100141.88
2023-05-03T23:26:06.976Z,100148.97
2023-05-03T23:29:01.970Z,100156.94
2023-05-03T23:31:42.031Z,100157.72
2023-05-03T23:34:13.451Z,100153.34
2023-05-03T23:37:04.406Z,100147.53
2023-05-03T23:39:36.923Z,100152.53
2023-05-03T23:42:34.196Z,100154.00
2023-05-03T23:45:18.961Z,100155.69
2023-05-03T23:48:16.508Z,100150.44
2023-05-03T23:50:54.678Z,100155.09
2023-05-03T23:53:37.119Z,100151.69
2023-05-03T23:56:11.023Z,100147.41
2023-05-03T23:58:52.136Z,100151.75
